sensor_id;sensor_type;location;lat;lon;timestamp;P1;durP1;ratioP1;P2;durP2;ratioP2
31482;SDS011;18103;52.246;8.052;2022-11-20T00:01:24;23.30;;;7.38;;
31482;SDS011;18103;52.246;8.052;2022-11-20T00:03:51;14.30;;;8.05;;
31482;SDS011;18103;52.246;8.052;2022-11-20T00:06:18;20.63;;;6.85;;
31482;SDS011;18103;52.246;8.052;2022-11-20T00:08:45;23.25;;;9.20;;
31482;SDS011;18103;52.246;8.052;2022-11-20T00:11:12;23.67;;;9.00;;
31482;SDS011;18103;52.246;8.052;2022-11-20T00:13:49;17.60;;;6.03;;
31482;SDS011;18103;52.246;8.052;2022-11-20T00:16:17;25.77;;;7.22;;
31482;SDS011;18103;52.246;8.052;2022-11-20T00:18:45;18.17;;;6.70;;
31482;SDS011;18103;52.246;8.052;2022-11-20T00:21:12;8.40;;;5.32;;
31482;SDS011;18103;52.246;8.052;2022-11-20T00:23:40;12.75;;;6.75;;
31482;SDS011;18103;52.246;8.052;2022-11-20T00:26:07;17.98;;;6.45;;
31482;SDS011;18103;52.246;8.052;2022-11-20T00:28:34;13.00;;;5.90;;
31482;SDS011;18103;52.246;8.052;2022-11-20T00:31:00;16.83;;;6.27;;
31482;SDS011;18103;52.246;8.052;2022-11-20T00:33:33;14.13;;;5.85;;
31482;SDS011;18103;52.246;8.052;2022-11-20T00:36:00;16.10;;;6.17;;
31482;SDS011;18103;52.246;8.052;2022-11-20T00:38:30;18.02;;;7.03;;
31482;SDS011;18103;52.246;8.052;2022-11-20T00:40:56;21.05;;;7.43;;
31482;SDS011;18103;52.246;8.052;2022-11-20T00:43:23;17.52;;;6.13;;
31482;SDS011;18103;52.246;8.052;2022-11-20T00:45:48;11.27;;;5.87;;
31482;SDS011;18103;52.246;8.052;2022-11-20T00:48:14;8.47;;;5.80;;
31482;SDS011;18103;52.246;8.052;2022-11-20T00:50:40;15.73;;;7.13;;
31482;SDS011;18103;52.246;8.052;2022-11-20T00:53:06;13.25;;;6.68;;
31482;SDS011;18103;52.246;8.052;2022-11-20T00:55:31;12.13;;;6.50;;
31482;SDS011;18103;52.246;8.052;2022-11-20T00:57:57;13.27;;;7.10;;
31482;SDS011;18103;52.246;8.052;2022-11-20T01:00:22;19.17;;;6.73;;
31482;SDS011;18103;52.246;8.052;2022-11-20T01:02:47;28.60;;;10.70;;
31482;SDS011;18103;52.246;8.052;2022-11-20T01:05:13;20.97;;;8.77;;
31482;SDS011;18103;52.246;8.052;2022-11-20T01:07:38;14.37;;;7.13;;
31482;SDS011;18103;52.246;8.052;2022-11-20T01:10:04;13.30;;;6.00;;
31482;SDS011;18103;52.246;8.052;2022-11-20T01:12:29;12.73;;;6.30;;
31482;SDS011;18103;52.246;8.052;2022-11-20T01:14:55;10.33;;;5.80;;
31482;SDS011;18103;52.246;8.052;2022-11-20T01:17:20;10.97;;;6.30;;
31482;SDS011;18103;52.246;8.052;2022-11-20T01:19:48;16.67;;;6.97;;
31482;SDS011;18103;52.246;8.052;2022-11-20T01:22:14;15.30;;;6.47;;
31482;SDS011;18103;52.246;8.052;2022-11-20T01:24:40;14.13;;;6.73;;
31482;SDS011;18103;52.246;8.052;2022-11-20T01:27:05;15.00;;;7.17;;
31482;SDS011;18103;52.246;8.052;2022-11-20T01:29:30;20.60;;;8.63;;
31482;SDS011;18103;52.246;8.052;2022-11-20T01:31:56;17.43;;;9.10;;
31482;SDS011;18103;52.246;8.052;2022-11-20T01:34:21;16.40;;;7.87;;
31482;SDS011;18103;52.246;8.052;2022-11-20T01:36:48;27.23;;;9.50;;
31482;SDS011;18103;52.246;8.052;2022-11-20T01:39:18;18.30;;;10.00;;
31482;SDS011;18103;52.246;8.052;2022-11-20T01:41:49;17.58;;;7.10;;
31482;SDS011;18103;52.246;8.052;2022-11-20T01:47:13;16.05;;;6.63;;
31482;SDS011;18103;52.246;8.052;2022-11-20T01:49:42;15.07;;;5.75;;
31482;SDS011;18103;52.246;8.052;2022-11-20T01:52:20;12.77;;;5.75;;
31482;SDS011;18103;52.246;8.052;2022-11-20T01:54:53;11.75;;;5.57;;
31482;SDS011;18103;52.246;8.052;2022-11-20T01:57:27;13.13;;;6.60;;
31482;SDS011;18103;52.246;8.052;2022-11-20T01:59:57;14.85;;;6.68;;
31482;SDS011;18103;52.246;8.052;2022-11-20T02:02:26;17.25;;;6.57;;
31482;SDS011;18103;52.246;8.052;2022-11-20T02:04:52;18.43;;;6.73;;
31482;SDS011;18103;52.246;8.052;2022-11-20T02:07:22;9.77;;;5.35;;
31482;SDS011;18103;52.246;8.052;2022-11-20T02:09:48;12.32;;;6.03;;
31482;SDS011;18103;52.246;8.052;2022-11-20T02:12:14;13.30;;;6.50;;
31482;SDS011;18103;52.246;8.052;2022-11-20T02:14:59;11.00;;;5.25;;
31482;SDS011;18103;52.246;8.052;2022-11-20T02:17:25;15.53;;;7.00;;
31482;SDS011;18103;52.246;8.052;2022-11-20T02:19:51;7.20;;;3.27;;
31482;SDS011;18103;52.246;8.052;2022-11-20T02:22:30;8.37;;;3.83;;
31482;SDS011;18103;52.246;8.052;2022-11-20T02:25:01;10.90;;;5.28;;
31482;SDS011;18103;52.246;8.052;2022-11-20T02:27:28;11.93;;;4.72;;
31482;SDS011;18103;52.246;8.052;2022-11-20T02:30:01;14.50;;;5.77;;
31482;SDS011;18103;52.246;8.052;2022-11-20T02:32:33;8.13;;;3.65;;
31482;SDS011;18103;52.246;8.052;2022-11-20T02:36:00;8.98;;;4.95;;
31482;SDS011;18103;52.246;8.052;2022-11-20T02:37:55;7.55;;;4.22;;
31482;SDS011;18103;52.246;8.052;2022-11-20T02:40:23;8.88;;;4.40;;
31482;SDS011;18103;52.246;8.052;2022-11-20T02:42:52;11.40;;;4.83;;
31482;SDS011;18103;52.246;8.052;2022-11-20T02:45:21;9.80;;;4.55;;
31482;SDS011;18103;52.246;8.052;2022-11-20T02:47:47;11.68;;;4.60;;
31482;SDS011;18103;52.246;8.052;2022-11-20T02:50:13;10.27;;;4.87;;
31482;SDS011;18103;52.246;8.052;2022-11-20T02:52:39;5.37;;;3.73;;
31482;SDS011;18103;52.246;8.052;2022-11-20T02:55:04;8.30;;;4.47;;
31482;SDS011;18103;52.246;8.052;2022-11-20T02:57:30;9.50;;;5.40;;
31482;SDS011;18103;52.246;8.052;2022-11-20T02:59:56;5.93;;;3.70;;
31482;SDS011;18103;52.246;8.052;2022-11-20T03:02:21;15.83;;;7.00;;
31482;SDS011;18103;52.246;8.052;2022-11-20T03:04:47;10.03;;;4.73;;
31482;SDS011;18103;52.246;8.052;2022-11-20T03:07:12;9.50;;;4.30;;
31482;SDS011;18103;52.246;8.052;2022-11-20T03:09:37;7.60;;;4.23;;
31482;SDS011;18103;52.246;8.052;2022-11-20T03:12:03;7.47;;;4.17;;
31482;SDS011;18103;52.246;8.052;2022-11-20T03:14:31;8.27;;;4.07;;
31482;SDS011;18103;52.246;8.052;2022-11-20T03:16:57;10.95;;;4.68;;
31482;SDS011;18103;52.246;8.052;2022-11-20T03:19:22;7.80;;;3.63;;
31482;SDS011;18103;52.246;8.052;2022-11-20T03:21:48;9.30;;;4.43;;
31482;SDS011;18103;52.246;8.052;2022-11-20T03:24:13;7.40;;;3.37;;
31482;SDS011;18103;52.246;8.052;2022-11-20T03:26:39;10.47;;;3.93;;
31482;SDS011;18103;52.246;8.052;2022-11-20T03:29:05;5.00;;;4.05;;
31482;SDS011;18103;52.246;8.052;2022-11-20T03:31:32;7.20;;;4.27;;
31482;SDS011;18103;52.246;8.052;2022-11-20T03:34:00;7.72;;;5.10;;
31482;SDS011;18103;52.246;8.052;2022-11-20T03:36:26;8.32;;;4.45;;
31482;SDS011;18103;52.246;8.052;2022-11-20T03:38:53;8.35;;;4.25;;
31482;SDS011;18103;52.246;8.052;2022-11-20T03:41:20;24.75;;;4.00;;
31482;SDS011;18103;52.246;8.052;2022-11-20T03:43:50;6.40;;;4.07;;
31482;SDS011;18103;52.246;8.052;2022-11-20T03:46:17;11.68;;;4.30;;
31482;SDS011;18103;52.246;8.052;2022-11-20T03:48:43;7.77;;;3.80;;
31482;SDS011;18103;52.246;8.052;2022-11-20T03:53:43;7.88;;;3.65;;
31482;SDS011;18103;52.246;8.052;2022-11-20T03:56:10;7.85;;;3.45;;
31482;SDS011;18103;52.246;8.052;2022-11-20T03:58:38;8.55;;;4.38;;
31482;SDS011;18103;52.246;8.052;2022-11-20T04:01:08;15.00;;;4.75;;
31482;SDS011;18103;52.246;8.052;2022-11-20T04:03:36;11.48;;;6.05;;
31482;SDS011;18103;52.246;8.052;2022-11-20T04:06:07;14.32;;;5.43;;
31482;SDS011;18103;52.246;8.052;2022-11-20T04:08:37;8.40;;;4.40;;
31482;SDS011;18103;52.246;8.052;2022-11-20T04:11:13;10.20;;;4.90;;
31482;SDS011;18103;52.246;8.052;2022-11-20T04:13:39;10.07;;;4.45;;
31482;SDS011;18103;52.246;8.052;2022-11-20T04:16:10;10.00;;;4.93;;
31482;SDS011;18103;52.246;8.052;2022-11-20T04:18:35;10.27;;;4.43;;
31482;SDS011;18103;52.246;8.052;2022-11-20T04:21:01;9.00;;;3.67;;
31482;SDS011;18103;52.246;8.052;2022-11-20T04:23:27;7.93;;;4.57;;
31482;SDS011;18103;52.246;8.052;2022-11-20T04:25:53;8.10;;;4.27;;
31482;SDS011;18103;52.246;8.052;2022-11-20T04:28:18;11.13;;;4.53;;
31482;SDS011;18103;52.246;8.052;2022-11-20T04:30:44;8.40;;;4.40;;
31482;SDS011;18103;52.246;8.052;2022-11-20T04:33:10;8.53;;;4.10;;
31482;SDS011;18103;52.246;8.052;2022-11-20T04:35:36;8.90;;;4.47;;
31482;SDS011;18103;52.246;8.052;2022-11-20T04:38:02;7.13;;;5.20;;
31482;SDS011;18103;52.246;8.052;2022-11-20T04:40:28;7.40;;;3.90;;
31482;SDS011;18103;52.246;8.052;2022-11-20T04:42:54;7.03;;;4.07;;
31482;SDS011;18103;52.246;8.052;2022-11-20T04:45:19;4.83;;;3.30;;
31482;SDS011;18103;52.246;8.052;2022-11-20T04:47:45;6.50;;;3.37;;
31482;SDS011;18103;52.246;8.052;2022-11-20T04:50:10;8.57;;;3.47;;
31482;SDS011;18103;52.246;8.052;2022-11-20T04:52:37;6.17;;;3.30;;
31482;SDS011;18103;52.246;8.052;2022-11-20T04:55:03;7.45;;;3.88;;
31482;SDS011;18103;52.246;8.052;2022-11-20T04:57:29;4.20;;;2.67;;
31482;SDS011;18103;52.246;8.052;2022-11-20T04:59:54;5.13;;;3.10;;
31482;SDS011;18103;52.246;8.052;2022-11-20T05:02:20;4.23;;;2.23;;
31482;SDS011;18103;52.246;8.052;2022-11-20T05:04:45;8.10;;;3.10;;
31482;SDS011;18103;52.246;8.052;2022-11-20T05:07:10;8.30;;;3.30;;
31482;SDS011;18103;52.246;8.052;2022-11-20T05:09:36;3.00;;;2.03;;
31482;SDS011;18103;52.246;8.052;2022-11-20T05:12:01;5.57;;;3.00;;
31482;SDS011;18103;52.246;8.052;2022-11-20T05:14:27;4.77;;;2.83;;
31482;SDS011;18103;52.246;8.052;2022-11-20T05:16:52;8.93;;;3.47;;
31482;SDS011;18103;52.246;8.052;2022-11-20T05:19:18;5.20;;;2.83;;
31482;SDS011;18103;52.246;8.052;2022-11-20T05:21:43;3.50;;;2.27;;
31482;SDS011;18103;52.246;8.052;2022-11-20T05:24:09;7.00;;;3.80;;
31482;SDS011;18103;52.246;8.052;2022-11-20T05:26:34;9.20;;;2.77;;
31482;SDS011;18103;52.246;8.052;2022-11-20T05:29:00;4.77;;;3.07;;
31482;SDS011;18103;52.246;8.052;2022-11-20T05:31:25;6.07;;;3.20;;
31482;SDS011;18103;52.246;8.052;2022-11-20T05:33:51;10.17;;;3.93;;
31482;SDS011;18103;52.246;8.052;2022-11-20T05:36:16;5.50;;;3.27;;
31482;SDS011;18103;52.246;8.052;2022-11-20T05:38:43;5.68;;;2.70;;
31482;SDS011;18103;52.246;8.052;2022-11-20T05:41:12;3.95;;;2.38;;
31482;SDS011;18103;52.246;8.052;2022-11-20T05:43:40;5.75;;;2.75;;
31482;SDS011;18103;52.246;8.052;2022-11-20T05:46:08;9.43;;;3.05;;
31482;SDS011;18103;52.246;8.052;2022-11-20T05:48:35;5.65;;;3.22;;
31482;SDS011;18103;52.246;8.052;2022-11-20T05:51:01;4.75;;;3.05;;
31482;SDS011;18103;52.246;8.052;2022-11-20T05:53:28;5.15;;;3.28;;
31482;SDS011;18103;52.246;8.052;2022-11-20T05:56:00;10.67;;;3.37;;
31482;SDS011;18103;52.246;8.052;2022-11-20T05:58:28;4.97;;;2.85;;
31482;SDS011;18103;52.246;8.052;2022-11-20T06:00:53;4.93;;;3.20;;
31482;SDS011;18103;52.246;8.052;2022-11-20T06:03:19;8.40;;;3.17;;
31482;SDS011;18103;52.246;8.052;2022-11-20T06:05:47;6.97;;;2.93;;
31482;SDS011;18103;52.246;8.052;2022-11-20T06:08:13;5.90;;;3.92;;
31482;SDS011;18103;52.246;8.052;2022-11-20T06:10:38;5.77;;;3.27;;
31482;SDS011;18103;52.246;8.052;2022-11-20T06:13:03;7.20;;;3.90;;
31482;SDS011;18103;52.246;8.052;2022-11-20T06:15:29;3.63;;;2.63;;
31482;SDS011;18103;52.246;8.052;2022-11-20T06:17:54;4.63;;;3.00;;
31482;SDS011;18103;52.246;8.052;2022-11-20T06:20:21;10.17;;;3.43;;
31482;SDS011;18103;52.246;8.052;2022-11-20T06:22:47;11.55;;;2.78;;
31482;SDS011;18103;52.246;8.052;2022-11-20T06:25:12;5.53;;;3.80;;
31482;SDS011;18103;52.246;8.052;2022-11-20T06:27:38;10.53;;;3.53;;
31482;SDS011;18103;52.246;8.052;2022-11-20T06:30:04;11.07;;;4.43;;
31482;SDS011;18103;52.246;8.052;2022-11-20T06:32:30;7.37;;;3.57;;
31482;SDS011;18103;52.246;8.052;2022-11-20T06:34:55;6.77;;;4.03;;
31482;SDS011;18103;52.246;8.052;2022-11-20T06:37:20;9.90;;;4.57;;
31482;SDS011;18103;52.246;8.052;2022-11-20T06:39:46;11.77;;;4.20;;
31482;SDS011;18103;52.246;8.052;2022-11-20T06:42:11;7.97;;;4.07;;
31482;SDS011;18103;52.246;8.052;2022-11-20T06:44:37;6.10;;;2.87;;
31482;SDS011;18103;52.246;8.052;2022-11-20T06:47:02;8.10;;;3.90;;
31482;SDS011;18103;52.246;8.052;2022-11-20T06:49:27;6.67;;;3.30;;
31482;SDS011;18103;52.246;8.052;2022-11-20T06:51:53;9.70;;;4.23;;
31482;SDS011;18103;52.246;8.052;2022-11-20T06:54:18;7.43;;;4.57;;
31482;SDS011;18103;52.246;8.052;2022-11-20T06:56:46;7.30;;;3.83;;
31482;SDS011;18103;52.246;8.052;2022-11-20T06:59:12;5.10;;;3.45;;
31482;SDS011;18103;52.246;8.052;2022-11-20T07:01:38;7.23;;;4.63;;
31482;SDS011;18103;52.246;8.052;2022-11-20T07:04:03;8.37;;;4.37;;
31482;SDS011;18103;52.246;8.052;2022-11-20T07:06:29;7.43;;;3.87;;
31482;SDS011;18103;52.246;8.052;2022-11-20T07:08:54;7.90;;;3.33;;
31482;SDS011;18103;52.246;8.052;2022-11-20T07:11:22;11.80;;;3.35;;
31482;SDS011;18103;52.246;8.052;2022-11-20T07:13:48;10.10;;;3.63;;
31482;SDS011;18103;52.246;8.052;2022-11-20T07:16:13;12.03;;;5.07;;
31482;SDS011;18103;52.246;8.052;2022-11-20T07:18:39;9.40;;;4.33;;
31482;SDS011;18103;52.246;8.052;2022-11-20T07:21:05;13.70;;;3.13;;
31482;SDS011;18103;52.246;8.052;2022-11-20T07:23:32;8.10;;;2.65;;
31482;SDS011;18103;52.246;8.052;2022-11-20T07:25:58;9.53;;;3.40;;
31482;SDS011;18103;52.246;8.052;2022-11-20T07:28:28;4.68;;;2.75;;
31482;SDS011;18103;52.246;8.052;2022-11-20T07:30:53;5.47;;;3.23;;
31482;SDS011;18103;52.246;8.052;2022-11-20T07:33:19;11.77;;;3.60;;
31482;SDS011;18103;52.246;8.052;2022-11-20T07:35:45;13.27;;;3.60;;
31482;SDS011;18103;52.246;8.052;2022-11-20T07:38:10;6.73;;;4.00;;
31482;SDS011;18103;52.246;8.052;2022-11-20T07:40:36;10.67;;;4.57;;
31482;SDS011;18103;52.246;8.052;2022-11-20T07:43:01;7.97;;;3.73;;
31482;SDS011;18103;52.246;8.052;2022-11-20T07:45:26;9.33;;;3.77;;
31482;SDS011;18103;52.246;8.052;2022-11-20T07:47:52;11.20;;;4.43;;
31482;SDS011;18103;52.246;8.052;2022-11-20T07:50:18;9.60;;;3.57;;
31482;SDS011;18103;52.246;8.052;2022-11-20T07:52:44;9.75;;;4.90;;
31482;SDS011;18103;52.246;8.052;2022-11-20T07:55:09;13.07;;;4.83;;
31482;SDS011;18103;52.246;8.052;2022-11-20T07:57:35;8.87;;;4.83;;
31482;SDS011;18103;52.246;8.052;2022-11-20T08:00:01;8.63;;;4.73;;
31482;SDS011;18103;52.246;8.052;2022-11-20T08:02:27;14.68;;;4.50;;
31482;SDS011;18103;52.246;8.052;2022-11-20T08:04:53;7.00;;;4.53;;
31482;SDS011;18103;52.246;8.052;2022-11-20T08:07:21;9.55;;;4.22;;
31482;SDS011;18103;52.246;8.052;2022-11-20T08:09:47;6.93;;;4.60;;
31482;SDS011;18103;52.246;8.052;2022-11-20T08:12:19;14.20;;;5.53;;
31482;SDS011;18103;52.246;8.052;2022-11-20T08:15:04;8.68;;;5.00;;
31482;SDS011;18103;52.246;8.052;2022-11-20T08:17:31;8.20;;;5.07;;
31482;SDS011;18103;52.246;8.052;2022-11-20T08:19:56;15.13;;;6.13;;
31482;SDS011;18103;52.246;8.052;2022-11-20T08:22:22;12.83;;;6.80;;
31482;SDS011;18103;52.246;8.052;2022-11-20T08:24:48;12.50;;;6.70;;
31482;SDS011;18103;52.246;8.052;2022-11-20T08:27:14;15.68;;;5.40;;
31482;SDS011;18103;52.246;8.052;2022-11-20T08:29:40;10.07;;;4.63;;
31482;SDS011;18103;52.246;8.052;2022-11-20T08:32:05;9.80;;;5.43;;
31482;SDS011;18103;52.246;8.052;2022-11-20T08:34:33;18.07;;;7.03;;
31482;SDS011;18103;52.246;8.052;2022-11-20T08:36:59;13.30;;;4.43;;
31482;SDS011;18103;52.246;8.052;2022-11-20T08:39:27;15.27;;;5.85;;
31482;SDS011;18103;52.246;8.052;2022-11-20T08:41:52;11.80;;;6.03;;
31482;SDS011;18103;52.246;8.052;2022-11-20T08:44:18;18.10;;;5.33;;
31482;SDS011;18103;52.246;8.052;2022-11-20T08:46:43;12.37;;;5.17;;
31482;SDS011;18103;52.246;8.052;2022-11-20T08:49:11;11.93;;;5.45;;
31482;SDS011;18103;52.246;8.052;2022-11-20T08:51:43;15.82;;;5.82;;
31482;SDS011;18103;52.246;8.052;2022-11-20T08:54:08;11.20;;;5.70;;
31482;SDS011;18103;52.246;8.052;2022-11-20T08:56:34;11.63;;;5.50;;
31482;SDS011;18103;52.246;8.052;2022-11-20T08:59:00;16.00;;;6.27;;
31482;SDS011;18103;52.246;8.052;2022-11-20T09:01:26;18.30;;;6.80;;
31482;SDS011;18103;52.246;8.052;2022-11-20T09:03:52;13.63;;;5.72;;
31482;SDS011;18103;52.246;8.052;2022-11-20T09:06:20;17.10;;;6.53;;
31482;SDS011;18103;52.246;8.052;2022-11-20T09:08:45;13.27;;;6.13;;
31482;SDS011;18103;52.246;8.052;2022-11-20T09:11:11;16.50;;;7.07;;
31482;SDS011;18103;52.246;8.052;2022-11-20T09:13:37;13.30;;;7.13;;
31482;SDS011;18103;52.246;8.052;2022-11-20T09:16:04;16.27;;;6.53;;
31482;SDS011;18103;52.246;8.052;2022-11-20T09:18:31;17.05;;;6.70;;
31482;SDS011;18103;52.246;8.052;2022-11-20T09:21:01;16.38;;;7.20;;
31482;SDS011;18103;52.246;8.052;2022-11-20T09:23:30;16.40;;;7.30;;
31482;SDS011;18103;52.246;8.052;2022-11-20T09:25:58;20.05;;;8.00;;
31482;SDS011;18103;52.246;8.052;2022-11-20T09:28:27;16.73;;;7.03;;
31482;SDS011;18103;52.246;8.052;2022-11-20T09:30:52;24.27;;;7.70;;
31482;SDS011;18103;52.246;8.052;2022-11-20T09:33:21;22.67;;;6.95;;
31482;SDS011;18103;52.246;8.052;2022-11-20T09:35:46;16.40;;;7.60;;
31482;SDS011;18103;52.246;8.052;2022-11-20T09:38:11;23.63;;;9.37;;
31482;SDS011;18103;52.246;8.052;2022-11-20T09:40:40;20.13;;;8.63;;
31482;SDS011;18103;52.246;8.052;2022-11-20T09:43:12;19.60;;;7.97;;
31482;SDS011;18103;52.246;8.052;2022-11-20T09:48:25;17.85;;;8.20;;
31482;SDS011;18103;52.246;8.052;2022-11-20T09:56:43;26.10;;;8.98;;
31482;SDS011;18103;52.246;8.052;2022-11-20T09:59:29;16.98;;;8.98;;
31482;SDS011;18103;52.246;8.052;2022-11-20T10:02:37;25.98;;;8.15;;
31482;SDS011;18103;52.246;8.052;2022-11-20T10:05:08;21.25;;;8.32;;
31482;SDS011;18103;52.246;8.052;2022-11-20T10:07:44;27.25;;;9.77;;
31482;SDS011;18103;52.246;8.052;2022-11-20T10:13:05;25.85;;;10.05;;
31482;SDS011;18103;52.246;8.052;2022-11-20T10:18:54;21.35;;;8.30;;
31482;SDS011;18103;52.246;8.052;2022-11-20T10:21:38;22.55;;;8.48;;
31482;SDS011;18103;52.246;8.052;2022-11-20T10:27:03;17.23;;;7.32;;
31482;SDS011;18103;52.246;8.052;2022-11-20T10:29:34;16.83;;;8.68;;
31482;SDS011;18103;52.246;8.052;2022-11-20T10:32:04;19.30;;;8.18;;
31482;SDS011;18103;52.246;8.052;2022-11-20T10:34:58;20.60;;;8.00;;
31482;SDS011;18103;52.246;8.052;2022-11-20T10:37:30;15.48;;;6.93;;
31482;SDS011;18103;52.246;8.052;2022-11-20T10:42:45;19.70;;;8.32;;
31482;SDS011;18103;52.246;8.052;2022-11-20T10:48:08;19.48;;;8.77;;
31482;SDS011;18103;52.246;8.052;2022-11-20T10:50:40;20.30;;;8.20;;
31482;SDS011;18103;52.246;8.052;2022-11-20T10:58:52;25.10;;;10.35;;
31482;SDS011;18103;52.246;8.052;2022-11-20T11:01:27;28.55;;;10.45;;
31482;SDS011;18103;52.246;8.052;2022-11-20T11:03:54;28.63;;;10.83;;
31482;SDS011;18103;52.246;8.052;2022-11-20T11:08:45;21.77;;;10.17;;
31482;SDS011;18103;52.246;8.052;2022-11-20T11:11:18;26.38;;;9.57;;
31482;SDS011;18103;52.246;8.052;2022-11-20T11:13:45;26.52;;;11.10;;
31482;SDS011;18103;52.246;8.052;2022-11-20T11:16:26;28.97;;;10.30;;
31482;SDS011;18103;52.246;8.052;2022-11-20T11:19:03;29.15;;;10.88;;
31482;SDS011;18103;52.246;8.052;2022-11-20T11:21:32;26.03;;;10.73;;
31482;SDS011;18103;52.246;8.052;2022-11-20T11:23:59;22.47;;;10.13;;
31482;SDS011;18103;52.246;8.052;2022-11-20T11:26:27;32.67;;;11.43;;
31482;SDS011;18103;52.246;8.052;2022-11-20T11:29:03;20.70;;;8.87;;
31482;SDS011;18103;52.246;8.052;2022-11-20T11:31:29;24.33;;;10.67;;
31482;SDS011;18103;52.246;8.052;2022-11-20T11:36:56;20.53;;;9.10;;
31482;SDS011;18103;52.246;8.052;2022-11-20T11:39:24;24.77;;;8.60;;
31482;SDS011;18103;52.246;8.052;2022-11-20T11:41:52;24.33;;;9.93;;
31482;SDS011;18103;52.246;8.052;2022-11-20T11:47:25;22.63;;;8.40;;
31482;SDS011;18103;52.246;8.052;2022-11-20T11:50:00;28.93;;;9.80;;
31482;SDS011;18103;52.246;8.052;2022-11-20T11:52:54;32.80;;;9.60;;
31482;SDS011;18103;52.246;8.052;2022-11-20T11:58:41;21.03;;;9.20;;
31482;SDS011;18103;52.246;8.052;2022-11-20T12:07:07;18.07;;;7.63;;
31482;SDS011;18103;52.246;8.052;2022-11-20T12:09:46;22.00;;;8.20;;
31482;SDS011;18103;52.246;8.052;2022-11-20T12:12:17;24.77;;;9.20;;
31482;SDS011;18103;52.246;8.052;2022-11-20T12:14:47;15.07;;;8.13;;
31482;SDS011;18103;52.246;8.052;2022-11-20T12:17:15;22.40;;;8.80;;
31482;SDS011;18103;52.246;8.052;2022-11-20T12:19:42;16.13;;;8.07;;
31482;SDS011;18103;52.246;8.052;2022-11-20T12:30:01;20.33;;;9.30;;
31482;SDS011;18103;52.246;8.052;2022-11-20T12:35:23;20.80;;;8.70;;
31482;SDS011;18103;52.246;8.052;2022-11-20T12:38:12;17.40;;;7.63;;
31482;SDS011;18103;52.246;8.052;2022-11-20T12:43:27;24.47;;;8.50;;
31482;SDS011;18103;52.246;8.052;2022-11-20T12:49:17;16.10;;;8.23;;
31482;SDS011;18103;52.246;8.052;2022-11-20T12:51:51;19.30;;;7.97;;
31482;SDS011;18103;52.246;8.052;2022-11-20T12:54:51;19.67;;;8.63;;
31482;SDS011;18103;52.246;8.052;2022-11-20T12:58:05;18.83;;;5.87;;
31482;SDS011;18103;52.246;8.052;2022-11-20T13:00:38;15.20;;;6.87;;
31482;SDS011;18103;52.246;8.052;2022-11-20T13:08:45;17.00;;;7.50;;
31482;SDS011;18103;52.246;8.052;2022-11-20T13:19:30;16.20;;;6.63;;
31482;SDS011;18103;52.246;8.052;2022-11-20T13:21:55;18.83;;;8.83;;
31482;SDS011;18103;52.246;8.052;2022-11-20T13:29:36;19.07;;;8.50;;
31482;SDS011;18103;52.246;8.052;2022-11-20T13:32:13;14.40;;;8.40;;
31482;SDS011;18103;52.246;8.052;2022-11-20T13:35:03;16.70;;;7.00;;
31482;SDS011;18103;52.246;8.052;2022-11-20T13:42:34;21.17;;;9.83;;
31482;SDS011;18103;52.246;8.052;2022-11-20T13:45:08;24.93;;;9.07;;
31482;SDS011;18103;52.246;8.052;2022-11-20T13:47:35;19.40;;;9.17;;
31482;SDS011;18103;52.246;8.052;2022-11-20T13:50:02;17.63;;;8.80;;
31482;SDS011;18103;52.246;8.052;2022-11-20T13:52:39;16.87;;;8.30;;
31482;SDS011;18103;52.246;8.052;2022-11-20T14:01:29;20.17;;;7.67;;
31482;SDS011;18103;52.246;8.052;2022-11-20T14:03:59;18.43;;;8.00;;
31482;SDS011;18103;52.246;8.052;2022-11-20T14:06:32;36.10;;;12.53;;
31482;SDS011;18103;52.246;8.052;2022-11-20T14:09:04;34.93;;;17.73;;
31482;SDS011;18103;52.246;8.052;2022-11-20T14:11:29;25.17;;;10.17;;
31482;SDS011;18103;52.246;8.052;2022-11-20T14:16:39;29.00;;;10.70;;
31482;SDS011;18103;52.246;8.052;2022-11-20T14:21:49;21.33;;;9.93;;
31482;SDS011;18103;52.246;8.052;2022-11-20T14:24:21;20.43;;;9.03;;
31482;SDS011;18103;52.246;8.052;2022-11-20T14:26:48;21.57;;;8.97;;
31482;SDS011;18103;52.246;8.052;2022-11-20T14:29:21;19.37;;;10.57;;
31482;SDS011;18103;52.246;8.052;2022-11-20T14:31:52;25.23;;;10.10;;
31482;SDS011;18103;52.246;8.052;2022-11-20T14:34:20;16.17;;;9.00;;
31482;SDS011;18103;52.246;8.052;2022-11-20T14:36:50;20.23;;;10.47;;
31482;SDS011;18103;52.246;8.052;2022-11-20T14:39:21;27.07;;;10.53;;
31482;SDS011;18103;52.246;8.052;2022-11-20T14:41:51;27.27;;;11.43;;
31482;SDS011;18103;52.246;8.052;2022-11-20T14:44:17;34.87;;;14.67;;
31482;SDS011;18103;52.246;8.052;2022-11-20T14:46:46;21.20;;;9.70;;
31482;SDS011;18103;52.246;8.052;2022-11-20T14:49:12;24.50;;;10.57;;
31482;SDS011;18103;52.246;8.052;2022-11-20T14:51:38;33.40;;;11.37;;
31482;SDS011;18103;52.246;8.052;2022-11-20T14:54:14;32.17;;;11.23;;
31482;SDS011;18103;52.246;8.052;2022-11-20T14:56:54;24.87;;;9.83;;
31482;SDS011;18103;52.246;8.052;2022-11-20T14:59:33;18.50;;;8.70;;
31482;SDS011;18103;52.246;8.052;2022-11-20T15:02:02;20.37;;;8.43;;
31482;SDS011;18103;52.246;8.052;2022-11-20T15:04:30;25.13;;;8.70;;
31482;SDS011;18103;52.246;8.052;2022-11-20T15:06:56;20.83;;;10.37;;
31482;SDS011;18103;52.246;8.052;2022-11-20T15:09:22;25.37;;;9.50;;
31482;SDS011;18103;52.246;8.052;2022-11-20T15:11:52;21.83;;;9.20;;
31482;SDS011;18103;52.246;8.052;2022-11-20T15:14:21;20.43;;;9.60;;
31482;SDS011;18103;52.246;8.052;2022-11-20T15:16:48;20.57;;;11.60;;
31482;SDS011;18103;52.246;8.052;2022-11-20T15:19:18;24.90;;;12.67;;
31482;SDS011;18103;52.246;8.052;2022-11-20T15:21:45;33.13;;;14.77;;
31482;SDS011;18103;52.246;8.052;2022-11-20T15:24:11;25.93;;;13.00;;
31482;SDS011;18103;52.246;8.052;2022-11-20T15:26:37;28.47;;;11.17;;
31482;SDS011;18103;52.246;8.052;2022-11-20T15:29:11;22.23;;;10.93;;
31482;SDS011;18103;52.246;8.052;2022-11-20T15:31:38;27.43;;;11.17;;
31482;SDS011;18103;52.246;8.052;2022-11-20T15:34:10;23.47;;;9.77;;
31482;SDS011;18103;52.246;8.052;2022-11-20T15:36:39;23.97;;;9.90;;
31482;SDS011;18103;52.246;8.052;2022-11-20T15:39:06;21.77;;;10.03;;
31482;SDS011;18103;52.246;8.052;2022-11-20T15:41:36;18.40;;;10.53;;
31482;SDS011;18103;52.246;8.052;2022-11-20T15:44:03;20.00;;;9.20;;
31482;SDS011;18103;52.246;8.052;2022-11-20T15:46:30;19.77;;;9.57;;
31482;SDS011;18103;52.246;8.052;2022-11-20T15:49:02;20.03;;;9.80;;
31482;SDS011;18103;52.246;8.052;2022-11-20T15:51:29;20.43;;;9.07;;
31482;SDS011;18103;52.246;8.052;2022-11-20T15:53:57;19.40;;;9.63;;
31482;SDS011;18103;52.246;8.052;2022-11-20T15:56:23;25.30;;;9.63;;
31482;SDS011;18103;52.246;8.052;2022-11-20T15:58:48;24.10;;;10.67;;
31482;SDS011;18103;52.246;8.052;2022-11-20T16:01:15;20.80;;;10.20;;
31482;SDS011;18103;52.246;8.052;2022-11-20T16:03:42;17.97;;;9.33;;
31482;SDS011;18103;52.246;8.052;2022-11-20T16:06:08;20.43;;;10.17;;
31482;SDS011;18103;52.246;8.052;2022-11-20T16:08:33;19.67;;;8.60;;
31482;SDS011;18103;52.246;8.052;2022-11-20T16:10:59;16.60;;;8.50;;
31482;SDS011;18103;52.246;8.052;2022-11-20T16:13:24;17.83;;;8.57;;
31482;SDS011;18103;52.246;8.052;2022-11-20T16:16:18;19.40;;;8.73;;
31482;SDS011;18103;52.246;8.052;2022-11-20T16:18:49;19.33;;;9.67;;
31482;SDS011;18103;52.246;8.052;2022-11-20T16:21:15;20.33;;;9.43;;
31482;SDS011;18103;52.246;8.052;2022-11-20T16:23:41;20.50;;;9.93;;
31482;SDS011;18103;52.246;8.052;2022-11-20T16:26:11;17.00;;;9.00;;
31482;SDS011;18103;52.246;8.052;2022-11-20T16:28:38;18.30;;;9.40;;
31482;SDS011;18103;52.246;8.052;2022-11-20T16:31:07;17.47;;;9.37;;